Decoded Metar for EPRZ (RZESZOW in POLAND) (IATA:RZE) | Meteo·Mobile Aviation Weather
aviador You're here:

EPRZ Decoded Metar

RZESZOW in POLAND
Report Time2018-10-17 20:00:00
UTC Time2018-10-17 20:25:09
Flight Rules mvfr MVFR
WindVRB at 02 kt
Visibility6000 m
Phenomena:N/A
Clouds:N/A
Expected CloudBase > 1,600 ft AGL from Temp-Dew spread
CeilingNone
Temp09°C (ISA -5)
Dew Point05°C (76% RH)
AAT7.2°C
QNH1021 hPa
Density Alt-46 ft
Elevation663 ft
Report Wrong Elevation
Raw Report
EPRZ 172000Z VRB02KT 6000 NSC 09/05 Q1021=

Extra information for EPRZ:More info

Metar Taf Metar & Taf Last 4 Metars F.Rules Stats Wind Profile Meteogram Temp Stats Airport Information Weather charts Add Link Nearby VenuesMetar ALERT Operation Metar Decoded Social comments